Time;durP1;ratioP1;P1;durP2;ratioP2;P2;SDS_P1;SDS_P2;PMS_P1;PMS_P2;Temp;Humidity;BMP_temperature;BMP_pressure;BME280_temperature;BME280_humidity;BME280_pressure;Samples;Min_cycle;Max_cycle;Signal;HPM_P1;HPM_P2
2023/08/23 00:05:09;;;;;;;11.2;7.1;;;;;;;21.44;86.41;;;;;
2023/08/23 00:15:09;;;;;;;10.1;6.9;;;;;;;21.33;87.11;;;;;
2023/08/23 00:26:10;;;;;;;10.1;6.9;;;;;;;21.38;86.53;;;;;
2023/08/23 00:37:09;;;;;;;15.2;7.9;;;;;;;21.24;87.09;;;;;
2023/08/23 00:48:09;;;;;;;15.2;7.9;;;;;;;21.25;86.78;;;;;
2023/08/23 00:59:09;;;;;;;15.2;7.9;;;;;;;20.99;88.46;;;;;
2023/08/23 01:10:09;;;;;;;10.7;7.8;;;;;;;21.1;88.52;;;;;
2023/08/23 01:20:09;;;;;;;10.7;7.8;;;;;;;21.19;88.14;;;;;
2023/08/23 01:30:09;;;;;;;10.7;7.8;;;;;;;21.24;88.19;;;;;
2023/08/23 01:41:09;;;;;;;12.3;8.5;;;;;;;21.25;88.63;;;;;
2023/08/23 01:52:09;;;;;;;12.3;8.5;;;;;;;21.09;90.35;;;;;
2023/08/23 02:02:09;;;;;;;12.3;8.5;;;;;;;21.3;89.78;;;;;
2023/08/23 02:13:09;;;;;;;13.1;7.9;;;;;;;21.28;90.49;;;;;
2023/08/23 02:23:09;;;;;;;13.1;7.9;;;;;;;21.43;90.08;;;;;
2023/08/23 02:34:10;;;;;;;13.1;7.9;;;;;;;21.54;90.01;;;;;
2023/08/23 02:45:10;;;;;;;12.5;9.1;;;;;;;21.62;89.3;;;;;
2023/08/23 02:55:10;;;;;;;12.5;9.1;;;;;;;21.62;89.07;;;;;
2023/08/23 03:06:10;;;;;;;12.5;9.1;;;;;;;21.68;88.98;;;;;
2023/08/23 03:17:10;;;;;;;11.6;9.1;;;;;;;21.62;89.71;;;;;
2023/08/23 03:27:10;;;;;;;11.6;9.1;;;;;;;21.65;89.89;;;;;
2023/08/23 03:37:11;;;;;;;16.4;11.4;;;;;;;21.69;89.76;;;;;
2023/08/23 03:47:13;;;;;;;16.4;11.4;;;;;;;21.74;89.28;;;;;
2023/08/23 03:58:10;;;;;;;16.4;11.4;;;;;;;21.7;89.7;;;;;
2023/08/23 04:08:10;;;;;;;17.4;12.9;;;;;;;21.7;89.88;;;;;
2023/08/23 04:19:10;;;;;;;17.4;12.9;;;;;;;21.66;89.82;;;;;
2023/08/23 04:30:10;;;;;;;17.4;12.9;;;;;;;21.74;89.52;;;;;
2023/08/23 04:40:11;;;;;;;19.9;14.9;;;;;;;21.6;89.99;;;;;
2023/08/23 04:51:10;;;;;;;19.9;14.9;;;;;;;21.56;90.1;;;;;
2023/08/23 05:01:10;;;;;;;19.9;14.9;;;;;;;21.65;90.04;;;;;
2023/08/23 05:12:10;;;;;;;21;17.1;;;;;;;21.81;89.12;;;;;
2023/08/23 05:23:11;;;;;;;21;17.1;;;;;;;21.94;88.48;;;;;
2023/08/23 05:34:10;;;;;;;21;17.1;;;;;;;21.76;88.39;;;;;
2023/08/23 05:45:10;;;;;;;27.5;21.9;;;;;;;21.8;88.21;;;;;
2023/08/23 05:56:10;;;;;;;27.5;21.9;;;;;;;21.82;88.13;;;;;
2023/08/23 06:06:10;;;;;;;27.5;21.9;;;;;;;21.95;87.42;;;;;
2023/08/23 06:17:10;;;;;;;30.2;26.3;;;;;;;22.12;86.8;;;;;
2023/08/23 06:27:10;;;;;;;30.2;26.3;;;;;;;22.6;85.89;;;;;
2023/08/23 06:38:11;;;;;;;36.8;29.8;;;;;;;22.86;84.47;;;;;
2023/08/23 06:48:10;;;;;;;36.8;29.8;;;;;;;23.31;82.69;;;;;
2023/08/23 06:58:10;;;;;;;36.8;29.8;;;;;;;23.66;81.28;;;;;
2023/08/23 07:09:10;;;;;;;34.2;27.6;;;;;;;24.05;80.37;;;;;
2023/08/23 07:19:10;;;;;;;34.2;27.6;;;;;;;23.97;78.61;;;;;
2023/08/23 07:29:15;;;;;;;34.2;27.6;;;;;;;24.24;77.72;;;;;
2023/08/23 07:39:10;;;;;;;27.7;24;;;;;;;23.99;78.85;;;;;
2023/08/23 07:50:10;;;;;;;27.7;24;;;;;;;23.92;79.24;;;;;
2023/08/23 08:00:10;;;;;;;27.7;24;;;;;;;24.61;77.03;;;;;
2023/08/23 08:11:11;;;;;;;31.3;23;;;;;;;25.08;75.96;;;;;
2023/08/23 08:21:10;;;;;;;31.3;23;;;;;;;25.33;74.28;;;;;
2023/08/23 08:31:10;;;;;;;31.3;23;;;;;;;25.37;75.43;;;;;
2023/08/23 08:42:10;;;;;;;28.3;23.2;;;;;;;25.21;74.4;;;;;
2023/08/23 08:53:10;;;;;;;28.3;23.2;;;;;;;25.29;74.87;;;;;
2023/08/23 09:03:10;;;;;;;28.3;23.2;;;;;;;25.53;74.31;;;;;
2023/08/23 09:14:10;;;;;;;26.5;23.2;;;;;;;25.17;74.54;;;;;
2023/08/23 09:24:10;;;;;;;26.5;23.2;;;;;;;25.03;74.57;;;;;
2023/08/23 09:35:10;;;;;;;26.5;23.2;;;;;;;24.9;74.54;;;;;
2023/08/23 09:45:10;;;;;;;29.5;23.9;;;;;;;25.07;75.01;;;;;
2023/08/23 09:56:10;;;;;;;29.5;23.9;;;;;;;24.9;74.62;;;;;
2023/08/23 10:06:10;;;;;;;29.5;23.9;;;;;;;24.57;75.34;;;;;
2023/08/23 10:16:12;;;;;;;28.5;24.4;;;;;;;24.07;76.53;;;;;
2023/08/23 10:26:10;;;;;;;28.5;24.4;;;;;;;24.34;76.27;;;;;
2023/08/23 10:37:10;;;;;;;32.2;26;;;;;;;24.5;75.1;;;;;
2023/08/23 10:47:10;;;;;;;32.2;26;;;;;;;24.9;74.17;;;;;
2023/08/23 10:57:11;;;;;;;32.2;26;;;;;;;25.26;72.52;;;;;
2023/08/23 11:08:10;;;;;;;37.8;27.1;;;;;;;25.46;71.78;;;;;
2023/08/23 11:19:10;;;;;;;37.8;27.1;;;;;;;26.08;70.74;;;;;
2023/08/23 11:29:10;;;;;;;37.8;27.1;;;;;;;26.37;70.08;;;;;
2023/08/23 11:40:10;;;;;;;25.9;22.9;;;;;;;26.13;70.28;;;;;
2023/08/23 11:51:10;;;;;;;25.9;22.9;;;;;;;26.3;68.32;;;;;
2023/08/23 12:02:10;;;;;;;25.9;22.9;;;;;;;26.34;67.74;;;;;
2023/08/23 12:13:12;;;;;;;24.2;21.7;;;;;;;26.95;66.19;;;;;
2023/08/23 12:23:10;;;;;;;24.2;21.7;;;;;;;27.28;66.51;;;;;
2023/08/23 12:33:10;;;;;;;24.2;21.7;;;;;;;27.5;64.28;;;;;
2023/08/23 12:44:10;;;;;;;26.1;20.1;;;;;;;27.97;64.95;;;;;
2023/08/23 12:54:11;;;;;;;26.1;20.1;;;;;;;28.09;62.25;;;;;
2023/08/23 13:05:10;;;;;;;26.1;20.1;;;;;;;28.23;62.64;;;;;
2023/08/23 13:15:11;;;;;;;20.8;17.8;;;;;;;27.89;63.8;;;;;
2023/08/23 13:25:11;;;;;;;20.8;17.8;;;;;;;28.04;61.75;;;;;
2023/08/23 13:36:10;;;;;;;20.8;17.8;;;;;;;28.71;61.33;;;;;
2023/08/23 13:47:11;;;;;;;20.6;17.2;;;;;;;28.89;62.25;;;;;
2023/08/23 13:58:11;;;;;;;20.6;17.2;;;;;;;28.81;60.66;;;;;
2023/08/23 14:09:11;;;;;;;19;17;;;;;;;28.65;61.09;;;;;
2023/08/23 14:19:11;;;;;;;19;17;;;;;;;29.45;58.83;;;;;
2023/08/23 14:30:11;;;;;;;19;17;;;;;;;30.04;57.1;;;;;
2023/08/23 14:41:11;;;;;;;21.5;17;;;;;;;30.16;56.87;;;;;
2023/08/23 14:51:10;;;;;;;21.5;17;;;;;;;29.97;57.64;;;;;
2023/08/23 15:01:11;;;;;;;21.5;17;;;;;;;30.38;55.01;;;;;
2023/08/23 15:11:11;;;;;;;17.6;14.7;;;;;;;29.07;57.61;;;;;
2023/08/23 15:21:11;;;;;;;17.6;14.7;;;;;;;30.7;54.61;;;;;
2023/08/23 15:32:11;;;;;;;17.6;14.7;;;;;;;31;53.07;;;;;
2023/08/23 15:42:10;;;;;;;18;13.7;;;;;;;29.59;56.91;;;;;
2023/08/23 15:53:11;;;;;;;18;13.7;;;;;;;28.47;58.93;;;;;
2023/08/23 16:03:10;;;;;;;18;13.7;;;;;;;28.09;60.08;;;;;
2023/08/23 16:14:11;;;;;;;15.3;11.9;;;;;;;27.85;59.34;;;;;
2023/08/23 16:25:11;;;;;;;15.3;11.9;;;;;;;27.76;59.72;;;;;
2023/08/23 16:36:10;;;;;;;15.3;11.9;;;;;;;27.37;59.49;;;;;
2023/08/23 16:46:11;;;;;;;11;7.5;;;;;;;27.2;60.04;;;;;
2023/08/23 16:57:10;;;;;;;11;7.5;;;;;;;26.82;63.24;;;;;
2023/08/23 17:07:11;;;;;;;11;7.5;;;;;;;26.62;66.28;;;;;
2023/08/23 17:17:11;;;;;;;7.9;5.4;;;;;;;26.28;64.36;;;;;
2023/08/23 17:28:11;;;;;;;7.9;5.4;;;;;;;25.75;67.24;;;;;
2023/08/23 17:39:11;;;;;;;17;14;;;;;;;25.22;70.01;;;;;
2023/08/23 17:49:11;;;;;;;17;14;;;;;;;24.77;70.83;;;;;
2023/08/23 18:00:11;;;;;;;17;14;;;;;;;24.33;72.26;;;;;
2023/08/23 18:11:10;;;;;;;19;15.8;;;;;;;23.91;74.32;;;;;
2023/08/23 18:21:11;;;;;;;19;15.8;;;;;;;23.46;74.55;;;;;
2023/08/23 18:31:11;;;;;;;19;15.8;;;;;;;23.14;74.94;;;;;
2023/08/23 18:42:11;;;;;;;20.8;18;;;;;;;22.69;78.04;;;;;
2023/08/23 18:52:11;;;;;;;20.8;18;;;;;;;22.26;80;;;;;
2023/08/23 19:03:11;;;;;;;20.8;18;;;;;;;21.81;83.08;;;;;
2023/08/23 19:13:11;;;;;;;25.6;20.8;;;;;;;21.63;83.64;;;;;
2023/08/23 19:23:11;;;;;;;25.6;20.8;;;;;;;21.39;83.56;;;;;
2023/08/23 19:34:11;;;;;;;25.6;20.8;;;;;;;21.14;84.2;;;;;
2023/08/23 19:44:11;;;;;;;26.2;19.7;;;;;;;20.97;85.29;;;;;
2023/08/23 19:54:11;;;;;;;26.2;19.7;;;;;;;20.66;85.62;;;;;
2023/08/23 20:04:11;;;;;;;26.2;19.7;;;;;;;20.54;86.05;;;;;
2023/08/23 20:14:11;;;;;;;22.9;18.7;;;;;;;20.35;85.84;;;;;
2023/08/23 20:25:11;;;;;;;22.9;18.7;;;;;;;20.12;87.16;;;;;
2023/08/23 20:35:11;;;;;;;22.9;18.7;;;;;;;20.03;86.37;;;;;
2023/08/23 20:46:11;;;;;;;24.2;19.3;;;;;;;19.95;86.12;;;;;
2023/08/23 20:57:11;;;;;;;24.2;19.3;;;;;;;19.9;85.84;;;;;
2023/08/23 21:07:11;;;;;;;24.2;19.3;;;;;;;19.99;86.16;;;;;
2023/08/23 21:18:11;;;;;;;20.9;16.8;;;;;;;19.8;86.68;;;;;
2023/08/23 21:29:11;;;;;;;20.9;16.8;;;;;;;19.68;85.95;;;;;
2023/08/23 21:40:11;;;;;;;18.3;15.8;;;;;;;19.47;86.5;;;;;
2023/08/23 21:50:11;;;;;;;18.3;15.8;;;;;;;19.27;86.14;;;;;
2023/08/23 22:00:12;;;;;;;18.3;15.8;;;;;;;19.26;86.57;;;;;
2023/08/23 22:11:11;;;;;;;19.6;14.5;;;;;;;19.34;86.27;;;;;
2023/08/23 22:21:11;;;;;;;19.6;14.5;;;;;;;19.36;85.55;;;;;
2023/08/23 22:31:13;;;;;;;19.6;14.5;;;;;;;19.27;85.67;;;;;
2023/08/23 22:42:11;;;;;;;15.7;10.6;;;;;;;19.11;85.99;;;;;
2023/08/23 22:53:11;;;;;;;15.7;10.6;;;;;;;18.95;84.94;;;;;
2023/08/23 23:03:11;;;;;;;15.7;10.6;;;;;;;18.75;84.96;;;;;
2023/08/23 23:14:11;;;;;;;13.5;10.3;;;;;;;18.74;85.06;;;;;
2023/08/23 23:25:11;;;;;;;13.5;10.3;;;;;;;18.4;85.33;;;;;
2023/08/23 23:36:11;;;;;;;13.5;10.3;;;;;;;18.09;85.37;;;;;
2023/08/23 23:46:15;;;;;;;12.8;8.8;;;;;;;17.82;85.87;;;;;
2023/08/23 23:57:11;;;;;;;12.8;8.8;;;;;;;17.63;85.89;;;;;
